Time;durP1;ratioP1;P1;durP2;ratioP2;P2;SDS_P1;SDS_P2;PMS_P1;PMS_P2;Temp;Humidity;BMP_temperature;BMP_pressure;BME280_temperature;BME280_humidity;BME280_pressure;Samples;Min_cycle;Max_cycle;Signal;HPM_P1;HPM_P2
2021/11/21 00:01:58;;;;;;;8.23;3.15;;;11.50;83.40;;;;;;5028966;28;20553;-77
2021/11/21 00:04:24;;;;;;;4.25;2.72;;;11.50;83.50;;;;;;5029982;28;20030;-91
2021/11/21 00:06:50;;;;;;;3.90;2.92;;;11.50;83.40;;;;;;5026838;28;20040;-84
2021/11/21 00:09:16;;;;;;;4.10;2.70;;;11.50;83.40;;;;;;5029304;28;20054;-87
2021/11/21 00:11:42;;;;;;;3.80;2.85;;;11.50;83.40;;;;;;5028500;28;20352;-85
2021/11/21 00:14:09;;;;;;;5.43;2.58;;;11.50;83.50;;;;;;5026794;28;20168;-85
2021/11/21 00:16:35;;;;;;;5.00;2.30;;;11.50;83.50;;;;;;5026735;28;20053;-75
2021/11/21 00:19:03;;;;;;;4.15;2.47;;;11.50;83.60;;;;;;5028145;28;20275;-84
2021/11/21 00:21:29;;;;;;;4.30;2.30;;;11.50;83.50;;;;;;5028402;28;20038;-86
2021/11/21 00:23:55;;;;;;;4.25;2.20;;;11.50;83.50;;;;;;5029339;28;20555;-81
2021/11/21 00:26:21;;;;;;;5.75;1.92;;;11.50;83.50;;;;;;5030153;28;20021;-80
2021/11/21 00:28:49;;;;;;;3.33;1.98;;;11.50;83.50;;;;;;5028229;28;20048;-84
2021/11/21 00:31:16;;;;;;;1.98;1.40;;;11.50;83.40;;;;;;5028663;28;20072;-75
2021/11/21 00:33:42;;;;;;;4.78;2.20;;;11.50;83.40;;;;;;5028304;28;20554;-83
2021/11/21 00:36:08;;;;;;;4.13;1.70;;;11.40;83.20;;;;;;5027182;28;20095;-84
2021/11/21 00:38:34;;;;;;;3.30;1.73;;;11.40;83.20;;;;;;5028509;28;20029;-80
2021/11/21 00:41:01;;;;;;;3.72;1.95;;;11.40;83.20;;;;;;5027475;28;20116;-89
2021/11/21 00:43:27;;;;;;;2.80;1.75;;;11.40;83.20;;;;;;5029180;28;20139;-85
2021/11/21 00:45:53;;;;;;;4.45;2.20;;;11.40;83.10;;;;;;5027167;28;20060;-79
2021/11/21 00:48:21;;;;;;;3.10;1.55;;;11.40;83.10;;;;;;5027103;28;20061;-87
2021/11/21 00:50:54;;;;;;;3.85;1.50;;;11.40;83.10;;;;;;5028869;28;20564;-83
2021/11/21 00:53:20;;;;;;;2.97;1.67;;;11.40;83.20;;;;;;5028589;28;20542;-86
2021/11/21 00:58:12;;;;;;;3.30;1.65;;;11.40;83.10;;;;;;5026769;28;20033;-85
2021/11/21 01:00:42;;;;;;;3.33;1.90;;;11.40;83.60;;;;;;5029102;28;20469;-83
2021/11/21 01:03:12;;;;;;;2.22;1.60;;;11.40;83.10;;;;;;5028350;28;20120;-83
2021/11/21 01:05:43;;;;;;;4.30;1.60;;;11.30;83.00;;;;;;5026509;28;20033;-89
2021/11/21 01:08:09;;;;;;;4.70;1.80;;;11.30;83.50;;;;;;5026732;28;20046;-85
2021/11/21 01:10:35;;;;;;;4.10;1.98;;;11.30;83.00;;;;;;5026697;28;20036;-76
2021/11/21 01:13:02;;;;;;;2.13;1.50;;;11.30;83.00;;;;;;5026230;28;20033;-79
2021/11/21 01:15:28;;;;;;;3.83;2.03;;;11.30;83.00;;;;;;5026195;28;20022;-85
2021/11/21 01:17:56;;;;;;;5.78;2.80;;;11.30;83.00;;;;;;5026335;28;20029;-82
2021/11/21 01:20:25;;;;;;;9.57;3.08;;;11.30;83.00;;;;;;5029317;28;20040;-83
2021/11/21 01:22:51;;;;;;;5.55;1.88;;;11.30;83.00;;;;;;5027925;28;20037;-77
2021/11/21 01:25:17;;;;;;;5.57;1.67;;;11.30;83.10;;;;;;5027416;28;20075;-76
2021/11/21 01:27:44;;;;;;;2.22;1.05;;;11.30;83.00;;;;;;5027421;28;20498;-81
2021/11/21 01:30:17;;;;;;;2.28;1.58;;;11.30;83.00;;;;;;5009800;28;20033;-81
2021/11/21 01:32:43;;;;;;;3.28;1.58;;;11.30;83.00;;;;;;5027498;28;20472;-83
2021/11/21 01:35:10;;;;;;;3.60;1.90;;;11.30;83.00;;;;;;5026022;28;20128;-78
2021/11/21 01:37:36;;;;;;;3.35;1.73;;;11.30;83.00;;;;;;5026906;28;20034;-82
2021/11/21 01:40:04;;;;;;;2.53;1.48;;;11.20;82.80;;;;;;5027115;28;20033;-78
2021/11/21 01:42:30;;;;;;;5.20;1.58;;;11.20;82.80;;;;;;5025603;28;20037;-81
2021/11/21 01:44:56;;;;;;;3.05;1.80;;;11.20;82.80;;;;;;5025868;28;20401;-82
2021/11/21 01:47:22;;;;;;;1.98;1.35;;;11.20;82.80;;;;;;5026291;28;20113;-82
2021/11/21 01:49:48;;;;;;;3.05;1.30;;;11.20;82.80;;;;;;5026865;28;20057;-76
2021/11/21 01:52:14;;;;;;;2.00;1.30;;;11.20;82.80;;;;;;5027211;28;20480;-76
2021/11/21 01:54:40;;;;;;;2.50;1.45;;;11.20;82.80;;;;;;5027806;28;20188;-84
2021/11/21 01:57:06;;;;;;;3.50;1.38;;;11.20;82.80;;;;;;5026744;28;20031;-91
2021/11/21 01:59:32;;;;;;;2.25;1.40;;;11.10;82.60;;;;;;5027374;28;20044;-88
2021/11/21 02:01:59;;;;;;;4.50;1.52;;;11.10;82.70;;;;;;5027289;28;20034;-93
2021/11/21 02:04:24;;;;;;;4.20;1.63;;;11.10;82.70;;;;;;5010628;28;20103;-76
2021/11/21 02:06:50;;;;;;;2.15;1.40;;;11.10;82.70;;;;;;5025187;28;20072;-84
2021/11/21 02:09:16;;;;;;;3.92;1.35;;;11.00;82.50;;;;;;5028027;28;20069;-92
2021/11/21 02:11:42;;;;;;;3.45;1.40;;;11.10;82.80;;;;;;5027082;28;20079;-86
2021/11/21 02:14:09;;;;;;;2.70;1.35;;;11.10;82.80;;;;;;5028292;28;20477;-85
2021/11/21 02:16:35;;;;;;;3.85;1.42;;;11.10;82.80;;;;;;5028480;28;20053;-86
2021/11/21 02:19:02;;;;;;;5.38;1.50;;;11.00;82.60;;;;;;5028413;28;20535;-75
2021/11/21 02:21:28;;;;;;;3.55;2.15;;;11.00;82.60;;;;;;5031502;28;20041;-79
2021/11/21 02:23:55;;;;;;;1.55;1.17;;;11.00;82.60;;;;;;5031395;28;20660;-92
2021/11/21 02:26:22;;;;;;;1.88;1.30;;;11.00;82.60;;;;;;5030643;28;20036;-88
2021/11/21 02:28:53;;;;;;;2.75;1.23;;;11.00;82.60;;;;;;5031569;28;20393;-90
2021/11/21 02:31:21;;;;;;;2.42;1.23;;;10.90;82.40;;;;;;5030099;28;20032;-77
2021/11/21 02:33:49;;;;;;;4.38;1.20;;;10.90;82.40;;;;;;5032291;28;20033;-81
2021/11/21 02:36:16;;;;;;;3.67;1.33;;;10.90;82.40;;;;;;5030605;28;20034;-79
2021/11/21 02:38:42;;;;;;;6.20;1.40;;;10.90;82.40;;;;;;5032377;28;20101;-74
2021/11/21 02:41:09;;;;;;;8.60;1.92;;;10.90;82.30;;;;;;5031707;28;20136;-76
2021/11/21 02:43:37;;;;;;;4.13;1.30;;;10.80;82.20;;;;;;5032166;28;20408;-82
2021/11/21 02:46:03;;;;;;;6.72;1.02;;;10.80;82.10;;;;;;5032663;28;20048;-85
2021/11/21 02:48:33;;;;;;;4.25;1.33;;;10.80;82.10;;;;;;5034197;28;20098;-83
2021/11/21 02:51:01;;;;;;;6.07;1.20;;;10.70;81.90;;;;;;5034543;28;20107;-76
2021/11/21 02:53:30;;;;;;;3.97;1.38;;;10.70;81.90;;;;;;5034676;28;20099;-84
2021/11/21 02:55:58;;;;;;;4.50;1.08;;;10.70;81.90;;;;;;5034895;28;20164;-75
2021/11/21 02:58:26;;;;;;;3.05;1.83;;;10.70;81.90;;;;;;5034200;28;20037;-74
2021/11/21 03:00:53;;;;;;;3.50;1.17;;;10.60;81.70;;;;;;5033168;28;20069;-82
2021/11/21 03:03:19;;;;;;;3.70;1.40;;;10.60;81.70;;;;;;5035198;28;20030;-77
2021/11/21 03:05:45;;;;;;;4.18;1.50;;;10.60;81.70;;;;;;5034933;28;20037;-88
2021/11/21 03:08:12;;;;;;;4.70;1.20;;;10.50;81.50;;;;;;5034908;28;20041;-82
2021/11/21 03:10:38;;;;;;;3.88;1.30;;;10.50;81.50;;;;;;5033531;28;20018;-75
2021/11/21 03:13:06;;;;;;;3.72;2.05;;;10.50;81.60;;;;;;5033401;28;20029;-86
2021/11/21 03:15:34;;;;;;;5.40;1.58;;;10.50;81.60;;;;;;5033737;28;20053;-89
2021/11/21 03:18:00;;;;;;;5.75;1.40;;;10.40;81.40;;;;;;5035257;28;20029;-87
2021/11/21 03:20:29;;;;;;;5.07;1.52;;;10.40;81.40;;;;;;5034616;28;20112;-79
2021/11/21 03:22:57;;;;;;;5.30;1.20;;;10.40;81.40;;;;;;5034886;28;20037;-78
2021/11/21 03:25:25;;;;;;;6.05;1.98;;;10.40;81.40;;;;;;5035017;28;20029;-89
2021/11/21 03:27:50;;;;;;;7.65;1.33;;;10.30;81.20;;;;;;5035324;28;20156;-89
2021/11/21 03:30:20;;;;;;;5.63;1.80;;;10.30;81.20;;;;;;5034297;28;20528;-73
2021/11/21 03:32:48;;;;;;;7.55;1.80;;;10.30;81.20;;;;;;5033090;28;20029;-73
2021/11/21 03:35:14;;;;;;;5.78;1.33;;;10.30;81.20;;;;;;5016678;28;20037;-80
2021/11/21 03:37:41;;;;;;;4.97;1.20;;;10.20;81.00;;;;;;5033827;28;20030;-76
2021/11/21 03:40:10;;;;;;;9.02;1.50;;;10.20;81.00;;;;;;5033296;28;20101;-81
2021/11/21 03:42:37;;;;;;;5.38;1.45;;;10.20;81.00;;;;;;5016907;28;20102;-80
2021/11/21 03:45:04;;;;;;;5.20;1.25;;;10.10;80.80;;;;;;5017499;28;20026;-75
2021/11/21 03:47:31;;;;;;;7.80;1.58;;;10.10;80.80;;;;;;5033848;28;20091;-90
2021/11/21 03:49:56;;;;;;;6.03;2.25;;;10.10;80.80;;;;;;5033708;28;20026;-81
2021/11/21 03:52:23;;;;;;;4.50;1.65;;;10.00;80.70;;;;;;5032541;28;20033;-82
2021/11/21 03:54:49;;;;;;;5.80;1.52;;;10.00;80.70;;;;;;5032322;28;20188;-83
2021/11/21 03:57:14;;;;;;;6.47;1.58;;;10.00;80.70;;;;;;5033945;28;20167;-77
2021/11/21 03:59:40;;;;;;;7.07;1.40;;;10.00;80.70;;;;;;5033159;28;20617;-90
2021/11/21 04:02:07;;;;;;;5.50;1.45;;;9.90;80.50;;;;;;5033789;28;20029;-84
2021/11/21 04:04:33;;;;;;;5.25;1.77;;;9.90;80.60;;;;;;5033893;28;20030;-75
2021/11/21 04:06:59;;;;;;;4.43;2.22;;;9.90;80.60;;;;;;5032308;28;20406;-82
2021/11/21 04:09:26;;;;;;;3.30;1.10;;;9.90;80.60;;;;;;5033042;28;20036;-80
2021/11/21 04:11:52;;;;;;;5.55;1.38;;;9.90;80.60;;;;;;5032080;28;20175;-87
2021/11/21 04:14:19;;;;;;;4.28;1.10;;;9.80;80.40;;;;;;5033299;28;20069;-84
2021/11/21 04:16:46;;;;;;;3.53;1.23;;;9.80;80.40;;;;;;5033482;28;20033;-76
2021/11/21 04:19:12;;;;;;;3.28;1.05;;;9.80;80.30;;;;;;5033751;28;20092;-87
2021/11/21 04:21:39;;;;;;;2.38;0.80;;;9.80;80.30;;;;;;5033867;28;20033;-87
2021/11/21 04:24:08;;;;;;;5.55;1.70;;;9.70;80.10;;;;;;5033530;28;20067;-76
2021/11/21 04:26:34;;;;;;;2.88;1.20;;;9.70;80.10;;;;;;5033002;28;20040;-90
2021/11/21 04:29:00;;;;;;;4.13;1.00;;;9.70;80.00;;;;;;5033394;28;20034;-77
2021/11/21 04:31:26;;;;;;;5.20;1.88;;;9.60;79.80;;;;;;5031395;28;20040;-74
2021/11/21 04:33:52;;;;;;;4.25;1.17;;;9.60;79.80;;;;;;5033019;28;20104;-84
2021/11/21 04:36:19;;;;;;;3.67;0.98;;;9.60;79.80;;;;;;5032966;28;20040;-88
2021/11/21 04:38:45;;;;;;;3.30;1.00;;;9.50;79.60;;;;;;5031725;28;20385;-88
2021/11/21 04:41:12;;;;;;;3.28;1.00;;;9.50;79.60;;;;;;5033258;28;20029;-76
2021/11/21 04:43:37;;;;;;;4.47;1.00;;;9.50;79.60;;;;;;5031310;28;20021;-87
2021/11/21 04:46:03;;;;;;;4.78;1.63;;;9.40;79.40;;;;;;5031383;28;20040;-78
2021/11/21 04:48:30;;;;;;;5.60;1.40;;;9.40;79.40;;;;;;5030765;28;20044;-78
2021/11/21 04:50:56;;;;;;;5.60;2.25;;;9.40;79.40;;;;;;5032169;28;20025;-81
2021/11/21 04:53:22;;;;;;;7.47;3.03;;;9.30;79.30;;;;;;5032708;28;20026;-84
2021/11/21 04:55:48;;;;;;;3.70;1.15;;;9.30;79.30;;;;;;5032284;28;20036;-79
2021/11/21 04:58:17;;;;;;;3.33;0.90;;;9.30;79.30;;;;;;5032789;28;20493;-78
2021/11/21 05:00:43;;;;;;;4.07;0.70;;;9.20;79.10;;;;;;5030373;28;20116;-74
2021/11/21 05:03:09;;;;;;;3.95;0.85;;;9.20;79.10;;;;;;5032186;28;20037;-77
2021/11/21 05:05:35;;;;;;;4.63;1.00;;;9.20;79.10;;;;;;5032351;28;20025;-78
2021/11/21 05:08:04;;;;;;;5.03;1.23;;;9.10;78.90;;;;;;5031933;28;20049;-87
2021/11/21 05:10:30;;;;;;;2.92;0.90;;;9.10;78.90;;;;;;5030959;28;20281;-82
2021/11/21 05:12:56;;;;;;;6.30;0.95;;;9.10;78.90;;;;;;5032342;28;20120;-86
2021/11/21 05:15:24;;;;;;;4.30;0.90;;;9.10;78.90;;;;;;5030653;28;20187;-86
2021/11/21 05:17:50;;;;;;;4.05;1.00;;;9.00;78.70;;;;;;5029079;28;20038;-86
2021/11/21 05:20:17;;;;;;;4.07;1.23;;;9.00;78.70;;;;;;5027458;28;20026;-77
2021/11/21 05:22:45;;;;;;;2.45;1.13;;;9.00;78.70;;;;;;5012041;28;20042;-81
2021/11/21 05:25:12;;;;;;;4.57;1.15;;;8.90;78.50;;;;;;5023072;28;20095;-80
2021/11/21 05:27:38;;;;;;;3.72;1.20;;;8.90;78.50;;;;;;5031711;28;20455;-83
2021/11/21 05:30:07;;;;;;;3.17;1.02;;;8.80;78.30;;;;;;5031239;28;20025;-90
2021/11/21 05:32:33;;;;;;;4.22;1.05;;;8.80;78.40;;;;;;5031528;28;20030;-91
2021/11/21 05:34:59;;;;;;;4.05;1.45;;;8.80;78.40;;;;;;5032900;28;20044;-85
2021/11/21 05:37:25;;;;;;;2.95;0.93;;;8.80;78.40;;;;;;5031609;28;20033;-85
2021/11/21 05:39:51;;;;;;;3.00;1.38;;;8.70;78.20;;;;;;5030740;28;20053;-78
2021/11/21 05:42:17;;;;;;;6.28;2.42;;;8.70;78.20;;;;;;5032484;28;20380;-78
2021/11/21 05:44:45;;;;;;;2.88;1.00;;;8.70;78.30;;;;;;5030729;28;20120;-84
2021/11/21 05:47:11;;;;;;;5.03;1.02;;;8.70;78.30;;;;;;5028621;28;20116;-92
2021/11/21 05:49:37;;;;;;;2.88;0.90;;;8.60;78.20;;;;;;5009279;28;20053;-75
2021/11/21 05:52:03;;;;;;;5.68;1.17;;;8.60;78.50;;;;;;5008795;28;20057;-79
2021/11/21 05:54:29;;;;;;;4.93;1.35;;;8.60;78.30;;;;;;5007449;28;20104;-81
2021/11/21 05:56:55;;;;;;;3.35;0.77;;;8.60;78.30;;;;;;5008345;28;20030;-78
2021/11/21 05:59:21;;;;;;;6.15;1.23;;;8.60;78.30;;;;;;5025547;28;20030;-74
2021/11/21 06:01:47;;;;;;;5.82;1.00;;;8.60;78.40;;;;;;5027796;28;20481;-74
2021/11/21 06:04:13;;;;;;;2.45;0.88;;;8.60;78.40;;;;;;5008136;28;20037;-84
2021/11/21 06:06:39;;;;;;;5.13;1.42;;;8.60;78.40;;;;;;5007585;28;20036;-82
2021/11/21 06:09:05;;;;;;;8.63;1.17;;;8.60;78.40;;;;;;5006731;28;20034;-75
2021/11/21 06:11:31;;;;;;;4.13;0.98;;;8.50;78.20;;;;;;5007318;28;20115;-74
2021/11/21 06:13:57;;;;;;;6.53;1.00;;;8.50;78.30;;;;;;5007310;28;20041;-75
2021/11/21 06:16:23;;;;;;;6.05;1.08;;;8.50;78.30;;;;;;5009218;28;20093;-77
2021/11/21 06:18:49;;;;;;;3.47;1.20;;;8.50;78.30;;;;;;5019734;28;20033;-90
2021/11/21 06:21:15;;;;;;;6.40;1.15;;;8.50;78.30;;;;;;5025851;28;20041;-78
2021/11/21 06:23:41;;;;;;;3.65;0.70;;;8.50;78.30;;;;;;5027568;28;20030;-89
2021/11/21 06:26:07;;;;;;;2.90;0.75;;;8.50;78.30;;;;;;5026717;28;20161;-81
2021/11/21 06:28:33;;;;;;;5.70;1.00;;;8.50;78.30;;;;;;5026768;28;20414;-80
2021/11/21 06:31:00;;;;;;;4.82;1.33;;;8.50;78.30;;;;;;5026781;28;20120;-83
2021/11/21 06:33:26;;;;;;;5.13;2.25;;;8.40;78.10;;;;;;5025449;28;20041;-90
2021/11/21 06:35:52;;;;;;;2.60;0.60;;;8.50;78.30;;;;;;5027245;28;20029;-81
2021/11/21 06:38:19;;;;;;;4.18;0.65;;;8.40;78.10;;;;;;5027145;28;20100;-91
2021/11/21 06:40:45;;;;;;;1.65;0.95;;;8.40;78.10;;;;;;5027006;28;20044;-78
2021/11/21 06:43:12;;;;;;;5.07;0.93;;;8.40;78.10;;;;;;5027063;28;20437;-78
2021/11/21 06:45:38;;;;;;;4.95;0.80;;;8.40;78.10;;;;;;5008843;28;20068;-76
2021/11/21 06:48:10;;;;;;;4.18;0.80;;;8.40;78.10;;;;;;5026597;28;20559;-84
2021/11/21 06:50:37;;;;;;;6.25;1.10;;;8.40;78.10;;;;;;5026787;28;20037;-83
2021/11/21 06:53:04;;;;;;;5.15;0.80;;;8.40;78.10;;;;;;5025274;28;20037;-78
2021/11/21 06:55:30;;;;;;;2.40;0.75;;;8.40;78.10;;;;;;5024700;28;20057;-82
2021/11/21 06:57:56;;;;;;;3.47;0.70;;;8.30;77.90;;;;;;5025490;28;20312;-85
2021/11/21 07:00:22;;;;;;;5.07;1.13;;;8.30;77.80;;;;;;5027043;28;20499;-84
2021/11/21 07:02:49;;;;;;;5.88;1.25;;;8.30;77.80;;;;;;5024616;28;20504;-86
2021/11/21 07:05:15;;;;;;;4.05;1.00;;;8.30;77.80;;;;;;5025842;28;20428;-76
2021/11/21 07:07:42;;;;;;;3.15;0.82;;;8.30;77.90;;;;;;5028843;28;20044;-86
2021/11/21 07:10:09;;;;;;;1.73;0.52;;;8.30;77.90;;;;;;5031664;28;20064;-80
2021/11/21 07:12:35;;;;;;;3.38;0.80;;;8.30;77.90;;;;;;5033661;28;20039;-89
2021/11/21 07:15:04;;;;;;;2.30;0.77;;;8.30;77.90;;;;;;5014368;28;20026;-83
2021/11/21 07:17:29;;;;;;;3.28;0.93;;;8.20;77.70;;;;;;5011552;28;20037;-86
2021/11/21 07:19:55;;;;;;;5.38;0.80;;;8.20;77.70;;;;;;4993211;28;20083;-79
2021/11/21 07:22:21;;;;;;;3.15;0.90;;;8.20;77.70;;;;;;5009724;28;20111;-78
2021/11/21 07:24:47;;;;;;;2.80;0.85;;;8.20;77.70;;;;;;5010768;28;20037;-85
2021/11/21 07:27:13;;;;;;;5.88;1.48;;;8.20;77.70;;;;;;5009699;28;20061;-86
2021/11/21 07:29:39;;;;;;;2.65;0.68;;;8.20;77.70;;;;;;5010261;28;20057;-89
2021/11/21 07:32:06;;;;;;;4.10;0.80;;;8.20;77.80;;;;;;5009610;28;20060;-82
2021/11/21 07:34:32;;;;;;;3.72;1.08;;;8.20;77.80;;;;;;5008918;28;20327;-83
2021/11/21 07:36:59;;;;;;;3.78;0.93;;;8.20;77.80;;;;;;5010018;28;20036;-83
2021/11/21 07:39:27;;;;;;;3.20;0.77;;;8.20;77.80;;;;;;5007874;28;20417;-84
2021/11/21 07:41:53;;;;;;;2.88;0.80;;;8.20;77.90;;;;;;5007469;28;20030;-85
2021/11/21 07:44:19;;;;;;;4.47;0.90;;;8.20;77.90;;;;;;5025735;28;20511;-85
2021/11/21 07:46:45;;;;;;;3.88;1.25;;;8.20;77.90;;;;;;5026998;28;20061;-78
2021/11/21 07:49:11;;;;;;;3.55;0.80;;;8.20;78.00;;;;;;5012994;28;20037;-83
2021/11/21 07:51:37;;;;;;;5.47;1.02;;;8.20;78.00;;;;;;5007719;28;20084;-84
2021/11/21 07:54:03;;;;;;;3.00;0.98;;;8.30;78.20;;;;;;5008836;28;20084;-81
2021/11/21 07:56:30;;;;;;;4.95;0.93;;;8.30;78.20;;;;;;4991270;28;20029;-77
2021/11/21 07:58:56;;;;;;;7.82;1.40;;;8.30;78.30;;;;;;5007951;28;20137;-81
2021/11/21 08:01:22;;;;;;;3.10;1.50;;;8.30;78.30;;;;;;5008179;28;20117;-76
2021/11/21 08:03:47;;;;;;;3.85;1.10;;;8.30;78.30;;;;;;5023618;28;20401;-84
2021/11/21 08:06:14;;;;;;;5.20;1.35;;;8.30;78.30;;;;;;5027759;28;20034;-82
2021/11/21 08:08:39;;;;;;;2.88;0.85;;;8.30;78.30;;;;;;5027805;28;20042;-80
2021/11/21 08:11:06;;;;;;;4.22;1.10;;;8.30;78.40;;;;;;5026750;28;20029;-80
2021/11/21 08:13:32;;;;;;;4.00;0.90;;;8.30;78.30;;;;;;5027040;28;20037;-87
2021/11/21 08:15:58;;;;;;;3.42;1.38;;;8.40;78.50;;;;;;5020206;28;20034;-76
2021/11/21 08:18:24;;;;;;;5.78;1.05;;;8.40;78.60;;;;;;5007285;28;20052;-80
2021/11/21 08:20:53;;;;;;;5.03;1.05;;;8.40;78.50;;;;;;5007542;28;20417;-84
2021/11/21 08:23:19;;;;;;;2.40;0.80;;;8.40;78.50;;;;;;5016560;28;20428;-79
2021/11/21 08:25:45;;;;;;;6.22;1.30;;;8.40;78.60;;;;;;5006480;28;20025;-87
2021/11/21 08:28:11;;;;;;;3.35;0.75;;;8.40;78.50;;;;;;5008057;28;20451;-81
2021/11/21 08:30:38;;;;;;;2.75;0.93;;;8.40;78.50;;;;;;5008832;28;20036;-80
2021/11/21 08:33:06;;;;;;;6.75;0.80;;;8.40;78.50;;;;;;5008567;28;20141;-78
2021/11/21 08:35:32;;;;;;;4.88;0.90;;;8.50;78.80;;;;;;5008505;28;20426;-83
2021/11/21 08:37:58;;;;;;;3.75;0.82;;;8.50;78.80;;;;;;5008261;28;20069;-84
2021/11/21 08:40:28;;;;;;;3.25;0.70;;;8.50;78.80;;;;;;5007058;28;20552;-87
2021/11/21 08:42:56;;;;;;;5.80;0.90;;;8.50;78.80;;;;;;5007716;28;20037;-90
2021/11/21 08:45:22;;;;;;;6.97;1.20;;;8.50;78.80;;;;;;5008724;28;20030;-89
2021/11/21 08:47:49;;;;;;;3.25;0.80;;;8.60;79.00;;;;;;5011175;28;20091;-81
2021/11/21 08:50:15;;;;;;;6.68;1.25;;;8.60;79.00;;;;;;5025896;28;20029;-82
2021/11/21 08:52:42;;;;;;;3.65;1.08;;;8.60;79.00;;;;;;5025017;28;20068;-80
2021/11/21 08:55:08;;;;;;;5.50;1.17;;;8.60;79.00;;;;;;5025823;28;20044;-88
2021/11/21 08:57:34;;;;;;;4.28;1.45;;;8.60;79.00;;;;;;5027614;28;20144;-86
2021/11/21 09:00:05;;;;;;;2.20;0.80;;;8.60;79.00;;;;;;5027299;28;20026;-83
2021/11/21 09:02:36;;;;;;;6.78;2.22;;;8.60;79.00;;;;;;5021509;28;20100;-78
2021/11/21 09:05:06;;;;;;;2.80;0.80;;;8.60;79.60;;;;;;5006639;28;20030;-78
2021/11/21 09:07:37;;;;;;;4.70;1.08;;;8.70;79.20;;;;;;5007361;28;20445;-79
2021/11/21 09:10:05;;;;;;;3.70;0.77;;;8.70;79.20;;;;;;5007109;28;20129;-82
2021/11/21 09:12:32;;;;;;;1.73;0.70;;;8.70;79.20;;;;;;5012234;28;20204;-81
2021/11/21 09:14:58;;;;;;;6.35;1.20;;;8.80;79.40;;;;;;5020289;28;20410;-84
2021/11/21 09:17:24;;;;;;;6.03;2.22;;;8.70;79.10;;;;;;5006253;28;20030;-83
2021/11/21 09:19:51;;;;;;;3.08;1.25;;;8.80;79.30;;;;;;5007492;28;20037;-84
2021/11/21 09:22:17;;;;;;;4.50;1.45;;;8.80;79.20;;;;;;5009109;28;20052;-82
2021/11/21 09:24:43;;;;;;;4.97;1.00;;;8.80;79.20;;;;;;5026694;28;20091;-76
2021/11/21 09:27:14;;;;;;;5.43;1.20;;;8.80;79.20;;;;;;5026776;28;20037;-79
2021/11/21 09:29:44;;;;;;;3.20;0.73;;;8.80;79.20;;;;;;5024868;28;20033;-77
2021/11/21 09:32:12;;;;;;;4.22;1.02;;;8.80;79.20;;;;;;5026485;28;20025;-83
2021/11/21 09:34:38;;;;;;;3.58;1.25;;;8.90;79.30;;;;;;5026886;28;20029;-83
2021/11/21 09:37:08;;;;;;;5.00;1.60;;;8.90;79.20;;;;;;5026966;28;20036;-84
2021/11/21 09:39:34;;;;;;;5.43;1.33;;;8.90;79.20;;;;;;5025433;28;20029;-76
2021/11/21 09:42:02;;;;;;;3.30;1.88;;;8.90;79.10;;;;;;5024645;28;20070;-76
2021/11/21 09:44:28;;;;;;;5.13;1.13;;;9.00;79.20;;;;;;5025557;28;20045;-82
2021/11/21 09:46:54;;;;;;;15.05;2.97;;;9.00;79.20;;;;;;5026922;28;20516;-78
2021/11/21 09:49:26;;;;;;;13.38;2.67;;;9.00;79.30;;;;;;5026818;28;20049;-83
2021/11/21 09:51:52;;;;;;;7.13;2.33;;;9.00;79.60;;;;;;5019779;28;20030;-80
2021/11/21 09:54:18;;;;;;;7.30;1.70;;;9.10;79.90;;;;;;5015028;28;20455;-77
2021/11/21 09:56:46;;;;;;;7.53;1.98;;;9.20;80.10;;;;;;5006807;28;20022;-78
2021/11/21 09:59:12;;;;;;;8.43;2.28;;;9.20;80.20;;;;;;5006140;28;20030;-77
2021/11/21 10:01:45;;;;;;;8.73;1.77;;;9.30;80.40;;;;;;5006390;28;20034;-78
2021/11/21 10:04:13;;;;;;;5.35;1.92;;;9.30;80.30;;;;;;5006161;28;20033;-79
2021/11/21 10:06:45;;;;;;;6.03;1.80;;;9.30;80.20;;;;;;5005129;28;20523;-80
2021/11/21 10:09:13;;;;;;;6.90;1.55;;;9.30;80.10;;;;;;5003871;28;20136;-81
2021/11/21 10:12:02;;;;;;;5.72;1.58;;;9.40;80.30;;;;;;5011001;28;20091;-78
2021/11/21 10:14:32;;;;;;;8.48;2.35;;;9.50;80.40;;;;;;5004725;28;20029;-79
2021/11/21 10:16:58;;;;;;;3.97;1.20;;;9.50;80.30;;;;;;5022780;28;20041;-79
2021/11/21 10:19:24;;;;;;;3.50;1.30;;;9.60;80.40;;;;;;5025848;28;20029;-78
2021/11/21 10:21:56;;;;;;;5.20;1.77;;;9.70;80.50;;;;;;5008286;28;20389;-77
2021/11/21 10:24:31;;;;;;;3.75;1.15;;;9.80;80.50;;;;;;5005749;28;20112;-78
2021/11/21 10:27:10;;;;;;;4.30;2.67;;;9.80;80.40;;;;;;5003851;28;20120;-79
2021/11/21 10:29:41;;;;;;;6.72;1.30;;;9.90;80.40;;;;;;5006204;28;20042;-83
2021/11/21 10:32:19;;;;;;;5.85;1.73;;;10.10;80.60;;;;;;5005825;28;20038;-78
2021/11/21 10:34:54;;;;;;;5.13;1.55;;;10.10;80.40;;;;;;5005950;28;20034;-80
2021/11/21 10:37:27;;;;;;;2.67;1.02;;;10.20;80.40;;;;;;5004399;28;20069;-79
2021/11/21 10:40:00;;;;;;;4.45;0.98;;;10.30;80.40;;;;;;5006041;28;20109;-82
2021/11/21 10:42:26;;;;;;;3.35;1.30;;;10.40;80.40;;;;;;5008449;28;20394;-80
2021/11/21 10:44:53;;;;;;;5.28;1.38;;;10.50;80.50;;;;;;5009484;28;20452;-78
2021/11/21 10:47:19;;;;;;;4.80;1.30;;;10.50;80.30;;;;;;5008231;28;20046;-78
2021/11/21 10:49:51;;;;;;;4.20;1.00;;;10.60;80.40;;;;;;5010234;28;20488;-78
2021/11/21 10:52:20;;;;;;;2.88;0.95;;;10.60;80.10;;;;;;5009523;28;20088;-83
2021/11/21 10:54:55;;;;;;;1.60;0.80;;;10.70;80.20;;;;;;5009365;28;20608;-79
2021/11/21 10:57:26;;;;;;;4.40;0.82;;;10.70;80.10;;;;;;5009236;28;20029;-78
2021/11/21 10:59:54;;;;;;;2.45;0.70;;;10.70;79.90;;;;;;5007938;28;20116;-79
2021/11/21 11:02:28;;;;;;;3.63;0.93;;;10.80;79.90;;;;;;5017968;28;20033;-78
2021/11/21 11:05:03;;;;;;;2.75;0.70;;;10.90;79.80;;;;;;5009500;28;20047;-79
2021/11/21 11:07:34;;;;;;;2.95;0.85;;;10.90;79.60;;;;;;5009215;28;20037;-78
2021/11/21 11:10:00;;;;;;;3.40;0.80;;;10.90;79.40;;;;;;5045570;28;20510;-79
2021/11/21 11:12:26;;;;;;;5.05;1.05;;;11.00;79.40;;;;;;5040453;28;20026;-78
2021/11/21 11:14:56;;;;;;;4.30;0.80;;;11.00;79.30;;;;;;4996096;28;20551;-80
2021/11/21 11:17:26;;;;;;;5.80;1.30;;;11.10;79.30;;;;;;5028715;28;20060;-79
2021/11/21 11:19:57;;;;;;;4.03;1.15;;;11.10;79.10;;;;;;5029088;28;20065;-79
2021/11/21 11:22:24;;;;;;;2.47;1.52;;;11.20;79.10;;;;;;5028999;28;20080;-79
2021/11/21 11:24:54;;;;;;;6.50;0.98;;;11.20;78.90;;;;;;5046306;28;20451;-79
2021/11/21 11:27:45;;;;;;;5.22;0.90;;;11.30;79.00;;;;;;5048397;28;20061;-79
2021/11/21 11:30:12;;;;;;;3.72;0.80;;;11.30;78.80;;;;;;5027082;28;20069;-78
2021/11/21 11:32:41;;;;;;;2.42;0.88;;;11.40;78.80;;;;;;5027753;28;20034;-78
2021/11/21 11:35:19;;;;;;;2.65;0.77;;;11.40;78.60;;;;;;5028524;28;20396;-76
2021/11/21 11:37:53;;;;;;;2.08;0.55;;;11.50;78.50;;;;;;5010972;28;20045;-78
2021/11/21 11:40:26;;;;;;;4.05;1.67;;;11.50;78.40;;;;;;5028267;28;20115;-77
2021/11/21 11:42:52;;;;;;;1.80;0.63;;;11.50;78.30;;;;;;5027404;28;20063;-77
2021/11/21 11:45:38;;;;;;;3.63;0.80;;;11.50;78.20;;;;;;5026813;28;20049;-76
2021/11/21 11:48:35;;;;;;;12.63;11.43;;;11.50;78.10;;;;;;5026923;28;20056;-79
2021/11/21 11:51:15;;;;;;;7.32;2.65;;;11.60;78.30;;;;;;5026155;28;20062;-78
2021/11/21 11:53:42;;;;;;;4.55;1.65;;;11.60;77.90;;;;;;5027450;28;20116;-81
2021/11/21 11:56:14;;;;;;;9.63;2.20;;;11.60;77.50;;;;;;5028263;28;20068;-81
2021/11/21 11:58:52;;;;;;;2.53;1.40;;;11.60;77.00;;;;;;5027931;28;20029;-79
2021/11/21 12:01:39;;;;;;;5.15;1.90;;;11.50;76.30;;;;;;5026623;28;20026;-77
2021/11/21 12:04:17;;;;;;;8.43;1.73;;;11.50;76.10;;;;;;5027715;28;20033;-76
2021/11/21 12:06:50;;;;;;;4.53;1.20;;;11.50;75.90;;;;;;5009973;28;20044;-76
2021/11/21 12:09:16;;;;;;;6.07;1.40;;;11.50;75.80;;;;;;5025478;28;20029;-78
2021/11/21 12:12:02;;;;;;;8.07;1.35;;;11.50;75.50;;;;;;5028105;28;20036;-77
2021/11/21 12:14:28;;;;;;;5.90;1.55;;;11.60;75.00;;;;;;5028461;28;20064;-77
2021/11/21 12:17:04;;;;;;;5.30;1.67;;;11.60;74.90;;;;;;5026602;28;20524;-76
2021/11/21 12:19:52;;;;;;;3.95;1.17;;;11.60;74.30;;;;;;5027904;28;20052;-77
2021/11/21 12:22:28;;;;;;;4.97;1.30;;;11.70;74.70;;;;;;5026813;28;20057;-78
2021/11/21 12:25:08;;;;;;;3.92;0.90;;;11.70;73.90;;;;;;5026316;28;20060;-76
2021/11/21 12:27:39;;;;;;;3.78;1.42;;;11.80;73.70;;;;;;5026823;28;20500;-79
2021/11/21 12:30:25;;;;;;;4.15;0.93;;;11.80;73.60;;;;;;5027626;28;20029;-77
2021/11/21 12:32:57;;;;;;;4.88;0.90;;;11.80;73.20;;;;;;5027569;28;20041;-84
2021/11/21 12:35:27;;;;;;;4.90;1.27;;;11.80;73.20;;;;;;5027710;28;20025;-78
2021/11/21 12:37:56;;;;;;;2.58;0.65;;;11.90;73.00;;;;;;5027225;28;20045;-82
2021/11/21 12:40:42;;;;;;;2.58;0.90;;;11.90;72.80;;;;;;5027104;28;20035;-81
2021/11/21 12:43:10;;;;;;;5.55;1.52;;;11.90;72.30;;;;;;5026565;28;20025;-77
2021/11/21 12:45:39;;;;;;;2.38;0.95;;;11.80;72.00;;;;;;5026599;28;20281;-78
2021/11/21 12:48:07;;;;;;;9.98;1.50;;;11.80;71.70;;;;;;5025679;28;20050;-79
2021/11/21 12:50:42;;;;;;;4.75;1.50;;;11.80;71.30;;;;;;5025709;28;20484;-81
2021/11/21 12:53:20;;;;;;;4.60;0.95;;;11.80;70.80;;;;;;5013867;28;20536;-79
2021/11/21 12:56:11;;;;;;;2.40;0.90;;;11.70;70.30;;;;;;5025836;28;20128;-78
2021/11/21 12:58:40;;;;;;;3.45;1.05;;;11.60;69.60;;;;;;5018563;28;20061;-78
2021/11/21 13:01:17;;;;;;;4.68;1.00;;;11.60;69.60;;;;;;5046411;28;20051;-76